createdAt,value
2022-12-19T00:00:25.111Z,34.92
2022-12-19T00:02:56.508Z,32.53
2022-12-19T00:05:23.592Z,41.90
2022-12-19T00:07:59.687Z,45.10
2022-12-19T00:10:32.190Z,31.33
2022-12-19T00:12:59.362Z,38.45
2022-12-19T00:15:31.030Z,27.58
2022-12-19T00:18:02.286Z,33.95
2022-12-19T00:20:29.157Z,28.23
2022-12-19T00:22:56.191Z,32.10
2022-12-19T00:25:22.855Z,33.20
2022-12-19T00:27:52.514Z,34.15
2022-12-19T00:30:19.374Z,24.67
2022-12-19T00:35:17.416Z,24.80
2022-12-19T00:37:49.584Z,28.20
2022-12-19T00:40:31.308Z,32.70
2022-12-19T00:42:59.826Z,24.88
2022-12-19T00:45:28.092Z,30.15
2022-12-19T00:47:57.067Z,33.28
2022-12-19T00:50:25.821Z,29.65
2022-12-19T00:52:53.151Z,30.13
2022-12-19T00:55:20.218Z,38.10
2022-12-19T01:00:25.602Z,29.75
2022-12-19T01:02:59.830Z,28.92
2022-12-19T01:05:34.152Z,35.47
2022-12-19T01:08:05.477Z,34.72
2022-12-19T01:10:52.099Z,24.52
2022-12-19T01:13:23.776Z,34.75
2022-12-19T01:15:52.626Z,25.55
2022-12-19T01:18:19.297Z,35.00
2022-12-19T01:20:48.327Z,32.33
2022-12-19T01:23:17.931Z,32.13
2022-12-19T01:25:54.439Z,32.97
2022-12-19T01:28:23.149Z,26.65
2022-12-19T01:30:50.433Z,32.10
2022-12-19T01:33:18.878Z,25.13
2022-12-19T01:35:49.083Z,35.97
2022-12-19T01:38:19.553Z,31.52
2022-12-19T01:40:51.803Z,32.88
2022-12-19T01:43:58.382Z,27.73
2022-12-19T01:46:46.638Z,33.75
2022-12-19T01:49:36.343Z,37.13
2022-12-19T01:52:20.761Z,32.97
2022-12-19T01:54:51.106Z,33.15
2022-12-19T01:57:20.349Z,32.10
2022-12-19T01:59:54.555Z,34.13
2022-12-19T02:02:39.953Z,31.73
2022-12-19T02:05:19.399Z,37.67
2022-12-19T02:07:53.185Z,32.47
2022-12-19T02:10:22.097Z,34.50
2022-12-19T02:12:50.010Z,33.88
2022-12-19T02:15:18.231Z,26.67
2022-12-19T02:18:00.227Z,38.72
2022-12-19T02:20:37.922Z,28.98
2022-12-19T02:23:26.588Z,42.45
2022-12-19T02:26:24.612Z,40.53
2022-12-19T02:29:21.212Z,33.08
2022-12-19T02:32:32.239Z,35.78
2022-12-19T02:35:25.313Z,30.17
2022-12-19T02:38:19.791Z,30.63
2022-12-19T02:41:09.927Z,36.08
2022-12-19T02:43:49.096Z,38.58
2022-12-19T02:46:28.801Z,31.98
2022-12-19T02:49:01.558Z,30.15
2022-12-19T02:52:01.905Z,34.92
2022-12-19T02:54:29.231Z,38.78
2022-12-19T02:57:13.822Z,35.38
2022-12-19T02:59:54.136Z,35.35
2022-12-19T03:03:00.658Z,40.92
2022-12-19T03:06:23.209Z,42.00
2022-12-19T03:09:14.000Z,38.95
2022-12-19T03:11:45.520Z,41.33
2022-12-19T03:14:21.320Z,45.67
2022-12-19T03:16:49.766Z,42.15
2022-12-19T03:19:19.723Z,41.67
2022-12-19T03:21:49.156Z,46.92
2022-12-19T03:24:19.873Z,35.15
2022-12-19T03:26:57.089Z,43.40
2022-12-19T03:29:32.728Z,40.97
2022-12-19T03:32:09.642Z,36.78
2022-12-19T03:34:49.045Z,51.55
2022-12-19T03:37:22.492Z,48.38
2022-12-19T03:44:23.904Z,38.47
2022-12-19T03:47:33.806Z,31.63
2022-12-19T03:50:03.831Z,35.97
2022-12-19T03:52:59.895Z,44.58
2022-12-19T03:55:51.775Z,44.95
2022-12-19T03:58:42.179Z,34.33
2022-12-19T04:01:13.085Z,35.58
2022-12-19T04:03:43.141Z,39.42
2022-12-19T04:06:36.811Z,38.85
2022-12-19T04:09:06.676Z,39.63
2022-12-19T04:11:49.190Z,30.75
2022-12-19T04:14:32.222Z,44.10
2022-12-19T04:17:23.644Z,50.65
2022-12-19T04:22:42.015Z,42.08
2022-12-19T04:25:19.094Z,33.38
2022-12-19T04:27:52.198Z,48.40
2022-12-19T04:30:29.970Z,46.42
2022-12-19T04:33:09.502Z,42.78
2022-12-19T04:35:40.979Z,49.67
2022-12-19T04:38:08.538Z,44.38
2022-12-19T04:40:42.342Z,45.70
2022-12-19T04:43:09.807Z,42.25
2022-12-19T04:45:42.034Z,45.83
2022-12-19T04:48:31.713Z,45.42
2022-12-19T04:50:58.797Z,49.33
2022-12-19T04:56:02.362Z,41.47
2022-12-19T04:58:32.581Z,43.47
2022-12-19T05:01:07.200Z,37.22
2022-12-19T05:03:35.717Z,42.88
2022-12-19T05:06:39.825Z,54.25
2022-12-19T05:09:10.583Z,50.05
2022-12-19T05:11:41.109Z,49.75
2022-12-19T05:14:21.919Z,51.45
2022-12-19T05:16:49.118Z,42.80
2022-12-19T05:21:49.107Z,47.22
2022-12-19T05:24:17.860Z,45.75
2022-12-19T05:26:49.338Z,44.42
2022-12-19T05:29:20.180Z,44.35
2022-12-19T05:31:52.322Z,42.03
2022-12-19T05:34:36.845Z,44.70
2022-12-19T05:37:29.794Z,44.63
2022-12-19T05:40:01.367Z,49.95
2022-12-19T05:42:43.033Z,50.20
2022-12-19T05:47:59.961Z,48.40
2022-12-19T05:59:15.204Z,43.03
2022-12-19T06:01:57.160Z,45.38
2022-12-19T06:04:46.506Z,43.03
2022-12-19T06:09:54.751Z,36.83
2022-12-19T06:12:39.444Z,59.25
2022-12-19T06:23:02.211Z,53.80
2022-12-19T06:25:56.516Z,52.15
2022-12-19T06:28:30.565Z,48.90
2022-12-19T06:31:46.852Z,50.10
2022-12-19T06:34:55.143Z,43.28
2022-12-19T06:37:10.941Z,50.50
2022-12-19T06:39:45.432Z,55.33
2022-12-19T06:42:30.969Z,44.65
2022-12-19T06:45:05.032Z,47.42
2022-12-19T06:50:48.695Z,45.78
2022-12-19T06:53:28.199Z,51.42
2022-12-19T06:56:04.696Z,41.88
2022-12-19T06:58:36.504Z,50.20
2022-12-19T07:02:00.196Z,58.08
2022-12-19T07:05:06.533Z,44.92
2022-12-19T07:07:40.338Z,48.92
2022-12-19T07:10:09.115Z,52.85
2022-12-19T07:12:51.499Z,44.03
2022-12-19T07:15:22.391Z,51.78
2022-12-19T07:17:49.335Z,48.25
2022-12-19T07:23:50.574Z,49.65
2022-12-19T07:27:35.824Z,47.42
2022-12-19T07:30:11.083Z,60.40
2022-12-19T07:36:40.931Z,47.70
2022-12-19T07:39:19.639Z,49.17
2022-12-19T07:41:51.984Z,44.05
2022-12-19T07:47:18.989Z,48.60
2022-12-19T07:50:31.370Z,53.88
2022-12-19T07:53:10.925Z,46.05
2022-12-19T07:58:21.236Z,49.60
2022-12-19T08:00:56.689Z,50.90
2022-12-19T08:03:29.807Z,45.83
2022-12-19T08:09:14.327Z,46.95
2022-12-19T08:11:54.934Z,44.53
2022-12-19T08:14:31.127Z,50.92
2022-12-19T08:17:25.785Z,49.13
2022-12-19T08:19:59.869Z,50.80
2022-12-19T08:22:53.161Z,46.60
2022-12-19T08:25:50.404Z,49.22
2022-12-19T08:28:45.373Z,46.67
2022-12-19T08:31:40.367Z,50.83
2022-12-19T08:34:19.035Z,47.85
2022-12-19T08:36:50.379Z,48.35
2022-12-19T08:39:21.226Z,52.78
2022-12-19T08:42:30.011Z,50.05
2022-12-19T08:45:05.076Z,52.08
2022-12-19T08:47:55.337Z,46.95
2022-12-19T08:50:42.769Z,51.13
2022-12-19T08:53:19.000Z,45.33
2022-12-19T08:57:11.514Z,44.83
2022-12-19T09:00:24.283Z,41.88
2022-12-19T09:03:49.028Z,44.78
2022-12-19T09:07:15.731Z,49.17
2022-12-19T09:10:20.475Z,38.78
2022-12-19T09:13:16.037Z,37.10
2022-12-19T09:16:55.651Z,37.80
2022-12-19T09:20:24.202Z,36.40
2022-12-19T09:24:07.495Z,29.27
2022-12-19T09:34:38.419Z,34.03
2022-12-19T09:38:11.380Z,37.85
2022-12-19T09:44:41.267Z,33.78
2022-12-19T09:47:23.511Z,31.65
2022-12-19T09:50:44.308Z,32.13
2022-12-19T09:54:14.869Z,39.53
2022-12-19T09:58:01.119Z,35.78
2022-12-19T10:00:43.732Z,39.33
2022-12-19T10:03:52.256Z,32.45
2022-12-19T10:07:22.356Z,36.67
2022-12-19T10:13:00.109Z,32.20
2022-12-19T10:16:00.262Z,35.13
2022-12-19T10:22:42.785Z,34.83
2022-12-19T10:28:35.335Z,36.85
2022-12-19T10:31:22.193Z,35.85
2022-12-19T10:34:31.890Z,37.83
2022-12-19T10:37:31.447Z,38.45
2022-12-19T10:40:52.745Z,32.58
2022-12-19T10:43:55.196Z,38.35
2022-12-19T10:46:50.220Z,37.30
2022-12-19T10:49:35.963Z,43.42
2022-12-19T10:52:13.302Z,33.88
2022-12-19T10:55:10.522Z,45.40
2022-12-19T10:57:59.375Z,49.75
2022-12-19T11:04:55.610Z,50.40
2022-12-19T11:07:23.160Z,47.08
2022-12-19T11:10:35.723Z,37.13
2022-12-19T11:18:21.322Z,38.90
2022-12-19T11:21:26.892Z,38.60
2022-12-19T11:29:37.054Z,55.00
2022-12-19T11:29:38.938Z,52.40
2022-12-19T11:31:52.841Z,45.65
2022-12-19T11:32:41.045Z,51.03
2022-12-19T11:35:37.577Z,42.90
2022-12-19T11:38:11.120Z,42.47
2022-12-19T11:44:25.315Z,51.00
2022-12-19T11:50:52.165Z,43.25
2022-12-19T11:53:59.599Z,52.08
2022-12-19T11:56:39.672Z,45.30
2022-12-19T11:59:34.481Z,53.15
2022-12-19T12:02:36.597Z,47.70
2022-12-19T12:09:36.083Z,38.22
2022-12-19T12:18:32.470Z,39.85
2022-12-19T12:24:25.031Z,42.63
2022-12-19T12:31:20.323Z,42.53
2022-12-19T12:31:29.754Z,41.22
2022-12-19T12:31:40.920Z,23.27
2022-12-19T12:32:00.573Z,26.10
2022-12-19T12:35:34.974Z,34.08
2022-12-19T12:40:55.431Z,40.35
2022-12-19T12:43:44.669Z,44.55
2022-12-19T12:46:24.906Z,43.97
2022-12-19T12:49:05.737Z,51.38
2022-12-19T12:52:52.282Z,52.80
2022-12-19T12:55:51.533Z,61.80
2022-12-19T12:58:59.517Z,48.53
2022-12-19T13:01:40.095Z,44.55
2022-12-19T13:04:31.974Z,45.95
2022-12-19T13:07:22.005Z,45.25
2022-12-19T13:09:58.869Z,48.40
2022-12-19T13:12:50.757Z,42.40
2022-12-19T13:15:32.687Z,47.72
2022-12-19T13:18:24.688Z,40.75
2022-12-19T13:20:55.786Z,45.70
2022-12-19T13:23:38.033Z,45.28
2022-12-19T13:26:43.578Z,43.70
2022-12-19T13:29:52.104Z,42.33
2022-12-19T13:32:33.102Z,47.08
2022-12-19T13:35:07.005Z,35.97
2022-12-19T13:39:56.901Z,48.05
2022-12-19T13:41:58.385Z,41.63
2022-12-19T13:44:31.095Z,50.97
2022-12-19T13:46:59.760Z,47.53
2022-12-19T13:49:35.386Z,29.10
2022-12-19T13:52:04.192Z,39.75
2022-12-19T13:54:47.326Z,49.05
2022-12-19T13:57:31.866Z,47.53
2022-12-19T14:00:10.057Z,47.50
2022-12-19T14:02:49.986Z,37.63
2022-12-19T14:06:14.929Z,51.33
2022-12-19T14:08:25.673Z,41.65
2022-12-19T14:11:33.693Z,48.00
2022-12-19T14:14:20.569Z,37.55
2022-12-19T14:17:07.095Z,46.20
2022-12-19T14:19:41.456Z,40.28
2022-12-19T14:22:35.548Z,45.60
2022-12-19T14:25:10.160Z,56.78
2022-12-19T14:28:21.196Z,65.50
2022-12-19T14:31:00.474Z,48.95
2022-12-19T14:34:11.647Z,63.72
2022-12-19T14:37:00.335Z,45.22
2022-12-19T14:39:35.852Z,62.58
2022-12-19T14:43:48.076Z,44.60
2022-12-19T14:54:00.204Z,45.80
2022-12-19T14:54:28.662Z,21.55
2022-12-19T14:56:17.806Z,29.63
2022-12-19T14:58:53.971Z,22.70
2022-12-19T15:02:13.248Z,20.45
2022-12-19T15:05:31.684Z,18.25
2022-12-19T15:08:14.189Z,20.00
2022-12-19T15:11:05.455Z,23.77
2022-12-19T15:16:28.877Z,32.40
2022-12-19T15:18:14.053Z,38.13
2022-12-19T15:21:16.096Z,29.67
2022-12-19T15:24:43.381Z,35.10
2022-12-19T15:32:00.390Z,25.55
2022-12-19T15:35:05.939Z,29.35
2022-12-19T15:37:45.870Z,17.58
2022-12-19T15:40:21.467Z,17.80
2022-12-19T15:42:58.796Z,32.15
2022-12-19T15:45:30.882Z,41.92
2022-12-19T15:47:57.883Z,47.33
2022-12-19T15:50:33.099Z,25.48
2022-12-19T15:53:40.200Z,44.55
2022-12-19T15:56:28.914Z,28.45
2022-12-19T15:59:05.288Z,43.88
2022-12-19T16:01:42.833Z,55.92
2022-12-19T16:05:05.142Z,41.30
2022-12-19T16:07:55.296Z,32.10
2022-12-19T16:22:58.343Z,28.02
2022-12-19T16:26:05.038Z,24.83
2022-12-19T16:28:41.530Z,24.45
2022-12-19T16:31:16.622Z,33.40
2022-12-19T16:33:43.356Z,34.78
2022-12-19T16:36:45.780Z,41.75
2022-12-19T16:39:16.940Z,27.80
2022-12-19T16:42:01.368Z,27.85
2022-12-19T16:44:35.927Z,28.02
2022-12-19T16:47:02.845Z,31.50
2022-12-19T16:49:30.766Z,29.98
2022-12-19T16:51:57.560Z,21.92
2022-12-19T16:56:52.939Z,21.33
2022-12-19T16:59:29.053Z,34.42
2022-12-19T17:01:56.599Z,27.25
2022-12-19T17:04:25.656Z,25.70
2022-12-19T17:06:53.791Z,29.98
2022-12-19T17:09:31.505Z,31.05
2022-12-19T17:12:02.108Z,35.33
2022-12-19T17:14:39.113Z,34.97
2022-12-19T17:17:17.174Z,31.77
2022-12-19T17:19:51.054Z,26.35
2022-12-19T17:22:30.954Z,21.92
2022-12-19T17:25:30.719Z,21.95
2022-12-19T17:28:06.817Z,21.33
2022-12-19T17:31:04.959Z,17.23
2022-12-19T17:33:58.627Z,17.58
2022-12-19T17:36:38.815Z,25.85
2022-12-19T17:39:25.054Z,26.88
2022-12-19T17:41:58.372Z,18.38
2022-12-19T17:44:28.814Z,17.60
2022-12-19T17:48:18.438Z,28.48
2022-12-19T17:54:45.468Z,18.75
2022-12-19T17:57:19.713Z,33.80
2022-12-19T17:59:52.586Z,33.72
2022-12-19T18:03:37.264Z,32.13
2022-12-19T18:11:13.976Z,32.88
2022-12-19T18:13:57.474Z,46.17
2022-12-19T18:16:39.949Z,25.33
2022-12-19T18:19:08.635Z,88.00
2022-12-19T18:21:38.340Z,36.05
2022-12-19T18:24:29.444Z,53.63
2022-12-19T18:27:25.899Z,42.35
2022-12-19T18:35:16.461Z,28.25
2022-12-19T18:37:48.931Z,38.28
2022-12-19T18:41:11.279Z,34.50
2022-12-19T18:47:24.082Z,36.38
2022-12-19T18:53:48.142Z,43.13
2022-12-19T18:56:48.176Z,31.45
2022-12-19T18:59:31.423Z,34.45
2022-12-19T19:02:04.104Z,39.50
2022-12-19T19:07:25.418Z,43.38
2022-12-19T19:09:55.237Z,39.42
2022-12-19T19:21:05.523Z,34.72
2022-12-19T19:24:05.071Z,32.83
2022-12-19T19:26:43.892Z,35.92
2022-12-19T19:29:13.599Z,35.13
2022-12-19T19:31:44.712Z,38.88
2022-12-19T19:34:55.705Z,34.40
2022-12-19T19:38:28.167Z,38.10
2022-12-19T19:41:54.923Z,33.17
2022-12-19T19:44:31.085Z,30.92
2022-12-19T19:47:03.462Z,35.80
2022-12-19T19:49:41.971Z,41.83
2022-12-19T19:52:18.468Z,42.33
2022-12-19T19:54:48.130Z,41.15
2022-12-19T19:57:14.859Z,35.47
2022-12-19T19:59:42.764Z,37.58
2022-12-19T20:02:11.435Z,39.45
2022-12-19T20:04:41.311Z,40.00
2022-12-19T20:07:08.471Z,29.70
2022-12-19T20:09:36.557Z,33.33
2022-12-19T20:14:30.769Z,32.40
2022-12-19T20:17:02.719Z,30.95
2022-12-19T20:19:32.744Z,22.17
2022-12-19T20:22:01.267Z,29.20
2022-12-19T20:24:32.220Z,29.42
2022-12-19T20:27:05.619Z,35.17
2022-12-19T20:29:36.678Z,33.95
2022-12-19T20:32:08.084Z,32.10
2022-12-19T20:34:43.184Z,36.25
2022-12-19T20:37:15.291Z,35.22
2022-12-19T20:39:44.834Z,36.92
2022-12-19T20:42:14.370Z,36.13
2022-12-19T20:44:47.770Z,35.22
2022-12-19T20:47:17.134Z,34.40
2022-12-19T20:49:44.662Z,37.20
2022-12-19T20:52:11.996Z,41.42
2022-12-19T20:54:39.477Z,41.88
2022-12-19T20:57:24.054Z,38.85
2022-12-19T20:59:53.206Z,39.70
2022-12-19T21:02:23.278Z,38.80
2022-12-19T21:04:51.263Z,41.75
2022-12-19T21:07:24.394Z,42.78
2022-12-19T21:10:05.076Z,39.13
2022-12-19T21:12:47.199Z,45.47
2022-12-19T21:15:15.544Z,35.25
2022-12-19T21:17:44.914Z,37.22
2022-12-19T21:20:14.876Z,38.05
2022-12-19T21:22:41.781Z,52.15
2022-12-19T21:25:11.444Z,39.72
2022-12-19T21:27:38.374Z,32.20
2022-12-19T21:30:06.528Z,41.55
2022-12-19T21:32:36.467Z,41.00
2022-12-19T21:35:03.576Z,37.28
2022-12-19T21:37:31.049Z,37.15
2022-12-19T21:39:58.570Z,38.95
2022-12-19T21:42:25.820Z,35.30
2022-12-19T21:44:54.911Z,40.25
2022-12-19T21:47:21.578Z,41.33
2022-12-19T21:49:49.511Z,39.17
2022-12-19T21:52:16.164Z,38.25
2022-12-19T21:54:45.846Z,43.45
2022-12-19T21:57:15.006Z,39.08
2022-12-19T21:59:45.755Z,47.33
2022-12-19T22:02:14.455Z,51.53
2022-12-19T22:04:41.350Z,49.25
2022-12-19T22:07:11.303Z,52.17
2022-12-19T22:09:46.144Z,45.13
2022-12-19T22:12:16.640Z,48.30
2022-12-19T22:14:44.797Z,45.63
2022-12-19T22:17:11.585Z,51.80
2022-12-19T22:19:39.810Z,42.83
2022-12-19T22:22:07.019Z,47.30
2022-12-19T22:24:34.135Z,43.70
2022-12-19T22:27:05.040Z,48.72
2022-12-19T22:29:36.447Z,52.92
2022-12-19T22:32:04.594Z,54.63
2022-12-19T22:34:31.727Z,54.33
2022-12-19T22:36:58.604Z,48.40
2022-12-19T22:41:59.797Z,48.90
2022-12-19T22:44:26.565Z,46.38
2022-12-19T22:46:56.415Z,51.28
2022-12-19T22:49:23.175Z,46.63
2022-12-19T22:51:50.260Z,47.20
2022-12-19T22:56:52.575Z,53.08
2022-12-19T22:59:22.518Z,54.90
2022-12-19T23:01:49.973Z,46.53
2022-12-19T23:04:17.736Z,47.22
2022-12-19T23:06:47.520Z,46.92
2022-12-19T23:09:27.839Z,56.33
2022-12-19T23:11:55.100Z,53.33
2022-12-19T23:16:58.063Z,40.05
2022-12-19T23:19:25.114Z,43.70
2022-12-19T23:21:51.711Z,39.47
2022-12-19T23:24:21.117Z,40.65
2022-12-19T23:26:51.499Z,52.28
2022-12-19T23:29:18.480Z,44.67
2022-12-19T23:34:15.768Z,42.80
2022-12-19T23:39:45.939Z,42.58
2022-12-19T23:42:15.243Z,43.78
2022-12-19T23:44:42.203Z,49.67
2022-12-19T23:47:22.980Z,44.67
2022-12-19T23:49:49.825Z,40.83
2022-12-19T23:52:16.596Z,51.17
2022-12-19T23:54:43.596Z,50.13
2022-12-19T23:59:37.220Z,37.55
